Time;durP1;ratioP1;P1;durP2;ratioP2;P2;SDS_P1;SDS_P2;PMS_P1;PMS_P2;Temp;Humidity;BMP_temperature;BMP_pressure;BME280_temperature;BME280_humidity;BME280_pressure;Samples;Min_cycle;Max_cycle;Signal;HPM_P1;HPM_P2
2021/05/04 00:00:14;;;;;;;6.57;2.55;;;12.60;66.40;;;;;;5093559;28;20013;-72
2021/05/04 00:02:40;;;;;;;5.10;1.92;;;12.60;66.90;;;;;;5095917;28;20028;-73
2021/05/04 00:05:06;;;;;;;7.57;2.33;;;12.60;67.00;;;;;;5082410;28;20021;-73
2021/05/04 00:07:32;;;;;;;6.30;2.17;;;12.60;66.10;;;;;;5080861;28;20028;-73
2021/05/04 00:09:58;;;;;;;6.00;1.90;;;12.60;66.90;;;;;;5080688;28;20036;-73
2021/05/04 00:12:24;;;;;;;6.47;1.80;;;12.60;67.30;;;;;;5093961;28;20024;-73
2021/05/04 00:14:51;;;;;;;7.40;2.30;;;12.60;67.00;;;;;;5114401;28;20024;-73
2021/05/04 00:17:16;;;;;;;9.05;2.75;;;12.60;67.20;;;;;;5106194;28;20103;-73
2021/05/04 00:19:42;;;;;;;6.30;2.17;;;12.60;67.70;;;;;;5095359;28;20047;-73
2021/05/04 00:22:08;;;;;;;8.50;2.30;;;12.60;68.00;;;;;;5090664;28;20028;-72
2021/05/04 00:24:34;;;;;;;8.68;2.10;;;12.60;69.60;;;;;;5080169;28;20035;-73
2021/05/04 00:26:59;;;;;;;8.02;2.30;;;12.50;69.00;;;;;;5080536;28;20056;-73
2021/05/04 00:29:25;;;;;;;9.10;2.63;;;12.50;69.40;;;;;;5080352;28;20037;-73
2021/05/04 00:31:51;;;;;;;7.03;2.40;;;12.40;68.80;;;;;;5081714;28;20056;-72
2021/05/04 00:34:17;;;;;;;6.82;2.45;;;12.50;69.50;;;;;;5079628;28;20498;-72
2021/05/04 00:36:42;;;;;;;7.15;2.35;;;12.40;69.70;;;;;;5092319;28;20038;-73
2021/05/04 00:39:08;;;;;;;10.25;2.17;;;12.40;70.30;;;;;;5100236;28;20023;-73
2021/05/04 00:41:34;;;;;;;5.88;2.30;;;12.40;70.00;;;;;;5098682;28;20028;-72
2021/05/04 00:44:00;;;;;;;7.07;2.30;;;12.40;69.90;;;;;;5100143;28;20024;-72
2021/05/04 00:46:26;;;;;;;8.60;2.28;;;12.40;69.90;;;;;;5096576;28;20724;-73
2021/05/04 00:48:51;;;;;;;7.35;2.28;;;12.40;70.60;;;;;;5093424;28;20106;-72
2021/05/04 00:51:20;;;;;;;10.55;2.63;;;12.40;69.50;;;;;;5079999;28;20032;-72
2021/05/04 00:53:45;;;;;;;6.65;1.85;;;12.40;69.90;;;;;;5080979;28;20051;-72
2021/05/04 00:56:11;;;;;;;10.52;2.47;;;12.40;70.30;;;;;;5092716;28;20438;-72
2021/05/04 00:58:41;;;;;;;8.73;3.17;;;12.40;71.20;;;;;;5087438;28;20028;-72
2021/05/04 01:01:07;;;;;;;7.25;2.25;;;12.50;70.40;;;;;;5087515;28;20059;-72
2021/05/04 01:03:33;;;;;;;8.13;2.08;;;12.50;71.00;;;;;;5079829;28;20028;-73
2021/05/04 01:05:58;;;;;;;10.00;3.17;;;12.50;69.90;;;;;;5084354;28;20028;-72
2021/05/04 01:08:24;;;;;;;7.57;2.63;;;12.40;71.20;;;;;;5092733;28;20049;-72
2021/05/04 01:10:50;;;;;;;10.88;2.58;;;12.50;70.80;;;;;;5080613;28;20028;-72
2021/05/04 01:13:16;;;;;;;9.57;1.98;;;12.50;71.00;;;;;;5080865;28;20017;-72
2021/05/04 01:15:42;;;;;;;9.63;2.60;;;12.60;70.40;;;;;;5095702;28;20394;-72
2021/05/04 01:18:08;;;;;;;7.47;2.67;;;12.60;71.00;;;;;;5099564;28;20066;-72
2021/05/04 01:20:36;;;;;;;9.18;2.50;;;12.60;70.50;;;;;;5084188;28;20025;-72
2021/05/04 01:23:03;;;;;;;8.40;2.33;;;12.60;71.70;;;;;;5079570;28;20017;-72
2021/05/04 01:25:29;;;;;;;8.55;3.08;;;12.70;71.10;;;;;;5087214;28;20036;-72
2021/05/04 01:27:54;;;;;;;9.07;2.70;;;12.70;71.70;;;;;;5080732;28;20036;-72
2021/05/04 01:30:21;;;;;;;7.30;2.17;;;12.70;71.80;;;;;;5079148;28;20483;-73
2021/05/04 01:32:46;;;;;;;8.45;2.00;;;12.70;71.20;;;;;;5093717;28;20517;-72
2021/05/04 01:35:13;;;;;;;10.95;2.22;;;12.70;71.10;;;;;;5082666;28;20044;-72
2021/05/04 01:37:38;;;;;;;7.35;2.00;;;12.70;72.20;;;;;;5080841;28;20384;-73
2021/05/04 01:40:06;;;;;;;5.93;1.90;;;12.80;70.90;;;;;;5079330;28;20159;-73
2021/05/04 01:42:32;;;;;;;5.75;1.95;;;12.80;71.70;;;;;;5097515;28;20027;-72
2021/05/04 01:44:57;;;;;;;6.63;1.90;;;12.80;72.00;;;;;;5098403;28;20029;-72
2021/05/04 01:47:23;;;;;;;4.47;1.80;;;12.80;71.60;;;;;;5092487;28;20135;-72
2021/05/04 01:49:49;;;;;;;7.05;1.98;;;12.80;71.60;;;;;;5092904;28;20028;-73
2021/05/04 01:52:15;;;;;;;7.18;1.90;;;12.80;72.70;;;;;;5082456;28;20065;-73
2021/05/04 01:54:42;;;;;;;4.75;1.50;;;12.80;72.50;;;;;;5079903;28;20028;-72
2021/05/04 01:57:08;;;;;;;5.72;1.92;;;12.90;73.20;;;;;;5081215;28;20051;-73
2021/05/04 01:59:34;;;;;;;4.55;1.50;;;12.90;72.30;;;;;;5078880;28;20021;-72
2021/05/04 02:02:00;;;;;;;7.20;1.83;;;12.90;72.70;;;;;;5094640;28;20090;-72
2021/05/04 02:04:30;;;;;;;3.95;1.65;;;12.90;73.40;;;;;;5089004;28;20613;-73
2021/05/04 02:06:56;;;;;;;6.70;2.00;;;12.90;73.40;;;;;;5085207;28;20020;-73
2021/05/04 02:09:22;;;;;;;5.65;1.58;;;12.90;72.20;;;;;;5086035;28;20078;-72
2021/05/04 02:11:48;;;;;;;6.47;1.60;;;12.90;73.10;;;;;;5079447;28;20029;-72
2021/05/04 02:14:14;;;;;;;5.22;1.70;;;12.90;74.00;;;;;;5100858;28;20048;-72
2021/05/04 02:16:39;;;;;;;5.55;2.10;;;12.90;72.60;;;;;;5094921;28;20055;-72
2021/05/04 02:19:05;;;;;;;4.80;1.65;;;12.90;74.60;;;;;;5097455;28;20387;-72
2021/05/04 02:21:32;;;;;;;7.30;2.00;;;12.90;75.40;;;;;;5094499;28;20021;-72
2021/05/04 02:23:58;;;;;;;4.68;1.52;;;12.90;75.50;;;;;;5087420;28;20475;-72
2021/05/04 02:26:23;;;;;;;5.22;1.60;;;12.80;76.60;;;;;;5095652;28;20051;-72
2021/05/04 02:28:49;;;;;;;3.92;1.35;;;12.80;76.10;;;;;;5078269;28;20028;-72
2021/05/04 02:31:15;;;;;;;5.32;1.83;;;12.80;74.90;;;;;;5078097;28;20070;-73
2021/05/04 02:33:42;;;;;;;4.60;1.35;;;12.70;75.50;;;;;;5097717;28;20478;-73
2021/05/04 02:36:10;;;;;;;2.85;1.10;;;12.70;75.60;;;;;;5085713;28;20474;-73
2021/05/04 02:38:36;;;;;;;3.53;1.30;;;12.70;75.10;;;;;;5078319;28;20025;-72
2021/05/04 02:41:04;;;;;;;5.50;1.35;;;12.70;76.00;;;;;;5085934;28;20022;-73
2021/05/04 02:43:30;;;;;;;7.15;1.55;;;12.70;76.90;;;;;;5087598;28;20028;-72
2021/05/04 02:45:56;;;;;;;3.90;1.52;;;12.70;76.20;;;;;;5078883;28;20081;-73
2021/05/04 02:48:22;;;;;;;5.28;1.23;;;12.70;75.90;;;;;;5095328;28;20395;-73
2021/05/04 02:50:48;;;;;;;5.22;1.30;;;12.70;75.70;;;;;;5079951;28;20513;-73
2021/05/04 02:53:14;;;;;;;5.03;1.35;;;12.70;75.20;;;;;;5080785;28;20020;-73
2021/05/04 02:55:40;;;;;;;6.22;1.35;;;12.80;75.40;;;;;;5097530;28;20384;-72
2021/05/04 02:58:07;;;;;;;6.07;1.58;;;12.80;75.80;;;;;;5082569;28;20056;-73
2021/05/04 03:00:33;;;;;;;6.53;1.67;;;12.80;75.20;;;;;;5079773;28;20506;-72
2021/05/04 03:02:59;;;;;;;6.53;1.50;;;12.90;75.20;;;;;;5077486;28;20016;-72
2021/05/04 03:05:24;;;;;;;8.00;1.60;;;12.90;75.10;;;;;;5077563;28;20542;-72
2021/05/04 03:07:50;;;;;;;4.63;1.42;;;12.90;75.00;;;;;;5090121;28;20035;-72
2021/05/04 03:10:16;;;;;;;6.68;1.60;;;12.90;74.80;;;;;;5093257;28;20017;-72
2021/05/04 03:12:42;;;;;;;8.00;1.52;;;12.90;74.50;;;;;;5077696;28;20020;-73
2021/05/04 03:15:09;;;;;;;5.82;1.40;;;12.90;74.20;;;;;;5096471;28;20028;-72
2021/05/04 03:17:35;;;;;;;5.80;1.70;;;12.90;74.40;;;;;;5095448;28;20020;-72
2021/05/04 03:20:01;;;;;;;2.38;1.00;;;12.90;74.90;;;;;;5091592;28;20024;-72
2021/05/04 03:22:26;;;;;;;3.22;1.15;;;12.90;74.90;;;;;;5077548;28;20026;-73
2021/05/04 03:24:52;;;;;;;6.18;1.27;;;12.90;73.90;;;;;;5088399;28;20025;-72
2021/05/04 03:27:18;;;;;;;4.00;1.20;;;12.90;74.20;;;;;;5084912;28;20496;-72
2021/05/04 03:29:44;;;;;;;5.57;1.25;;;12.90;74.90;;;;;;5091146;28;20034;-73
2021/05/04 03:32:09;;;;;;;4.75;1.30;;;12.90;73.80;;;;;;5082592;28;20092;-72
2021/05/04 03:34:35;;;;;;;4.53;1.17;;;12.90;74.10;;;;;;5090608;28;20040;-72
2021/05/04 03:37:01;;;;;;;4.65;1.27;;;12.90;73.90;;;;;;5082023;28;20527;-72
2021/05/04 03:39:27;;;;;;;4.93;1.27;;;12.90;75.10;;;;;;5077208;28;20036;-72
2021/05/04 03:41:53;;;;;;;5.72;1.13;;;12.90;75.30;;;;;;5091979;28;20020;-72
2021/05/04 03:44:19;;;;;;;6.13;1.25;;;12.90;75.00;;;;;;5084835;28;20029;-72
2021/05/04 03:46:44;;;;;;;6.03;1.50;;;12.90;75.00;;;;;;5079560;28;20107;-72
2021/05/04 03:49:11;;;;;;;4.57;1.40;;;12.90;74.90;;;;;;5093270;28;20013;-72
2021/05/04 03:51:37;;;;;;;5.20;1.58;;;12.80;74.30;;;;;;5077242;28;20043;-72
2021/05/04 03:54:04;;;;;;;5.47;1.20;;;12.80;75.00;;;;;;5086229;28;20032;-72
2021/05/04 03:56:29;;;;;;;3.42;1.10;;;12.80;74.60;;;;;;5094930;28;20478;-72
2021/05/04 03:58:56;;;;;;;3.67;1.40;;;12.80;74.00;;;;;;5076906;28;20028;-72
2021/05/04 04:01:22;;;;;;;3.63;1.38;;;12.80;74.40;;;;;;5088009;28;20024;-72
2021/05/04 04:03:51;;;;;;;5.05;1.42;;;12.80;73.90;;;;;;5092371;28;20031;-72
2021/05/04 04:06:17;;;;;;;5.28;1.25;;;12.80;74.80;;;;;;5077159;28;20365;-72
2021/05/04 04:08:45;;;;;;;4.13;1.60;;;12.70;74.40;;;;;;5095134;28;20073;-72
2021/05/04 04:11:12;;;;;;;7.65;1.17;;;12.70;74.50;;;;;;5085832;28;20043;-72
2021/05/04 04:13:38;;;;;;;5.15;1.33;;;12.70;74.00;;;;;;5076699;28;20021;-72
2021/05/04 04:16:04;;;;;;;3.67;1.00;;;12.70;74.40;;;;;;5094542;28;20052;-72
2021/05/04 04:18:30;;;;;;;2.85;1.05;;;12.70;73.50;;;;;;5093914;28;20035;-73
2021/05/04 04:20:55;;;;;;;5.25;1.20;;;12.80;72.90;;;;;;5084014;28;20587;-72
2021/05/04 04:23:22;;;;;;;5.57;1.17;;;12.80;73.90;;;;;;5082594;28;20055;-72
2021/05/04 04:25:48;;;;;;;6.70;1.60;;;12.80;74.20;;;;;;5093497;28;20047;-72
2021/05/04 04:28:14;;;;;;;5.10;1.58;;;12.80;73.90;;;;;;5080932;28;21134;-72
2021/05/04 04:30:40;;;;;;;5.10;1.65;;;12.80;73.80;;;;;;5079963;28;20040;-72
2021/05/04 04:33:06;;;;;;;4.65;1.20;;;12.80;74.20;;;;;;5077726;28;20113;-72
2021/05/04 04:35:31;;;;;;;4.22;1.27;;;12.90;73.50;;;;;;5080606;28;20044;-73
2021/05/04 04:37:57;;;;;;;5.75;1.48;;;12.90;73.50;;;;;;5085526;28;20025;-72
2021/05/04 04:40:23;;;;;;;3.85;0.90;;;12.90;73.30;;;;;;5081131;28;20028;-72
2021/05/04 04:42:49;;;;;;;5.50;1.20;;;12.90;74.10;;;;;;5080315;28;20028;-73
2021/05/04 04:45:15;;;;;;;7.47;1.52;;;12.90;73.40;;;;;;5080077;28;20036;-73
2021/05/04 04:47:41;;;;;;;4.35;1.13;;;12.90;73.40;;;;;;5094510;28;20028;-72
2021/05/04 04:50:08;;;;;;;4.20;1.27;;;12.90;73.20;;;;;;5098343;28;20387;-72
2021/05/04 04:52:34;;;;;;;4.75;1.23;;;12.90;72.70;;;;;;5109551;28;20024;-72
2021/05/04 04:55:00;;;;;;;5.38;1.73;;;12.90;71.80;;;;;;5098923;28;20037;-73
2021/05/04 04:57:25;;;;;;;5.95;1.60;;;12.80;72.10;;;;;;5089896;28;20030;-73
2021/05/04 04:59:51;;;;;;;4.95;1.20;;;12.80;71.30;;;;;;5087908;28;20020;-73
2021/05/04 05:02:18;;;;;;;6.32;1.40;;;12.80;70.50;;;;;;5086793;28;20108;-72
2021/05/04 05:04:45;;;;;;;7.07;1.40;;;12.80;70.10;;;;;;5080916;28;20024;-72
2021/05/04 05:07:11;;;;;;;5.28;1.23;;;12.70;69.80;;;;;;5079898;28;20021;-72
2021/05/04 05:09:36;;;;;;;5.60;1.50;;;12.70;69.00;;;;;;5080690;28;20539;-72
2021/05/04 05:12:06;;;;;;;6.72;1.60;;;12.70;68.40;;;;;;5098874;28;20111;-72
2021/05/04 05:14:37;;;;;;;3.63;1.30;;;12.70;68.00;;;;;;5097774;28;20024;-74
2021/05/04 05:17:04;;;;;;;6.95;1.58;;;12.70;68.20;;;;;;5093236;28;20062;-72
2021/05/04 05:19:30;;;;;;;10.65;2.45;;;12.60;68.00;;;;;;5095993;28;20095;-74
2021/05/04 05:21:56;;;;;;;5.07;1.75;;;12.60;67.70;;;;;;5081885;28;20043;-73
2021/05/04 05:24:22;;;;;;;12.38;2.20;;;12.60;67.80;;;;;;5090885;28;20024;-75
2021/05/04 05:26:51;;;;;;;5.78;1.80;;;12.60;67.90;;;;;;5095025;28;20440;-76
2021/05/04 05:29:17;;;;;;;8.38;2.03;;;12.60;68.00;;;;;;5093656;28;20399;-74
2021/05/04 05:31:43;;;;;;;12.88;1.98;;;12.60;67.80;;;;;;5087432;28;20024;-73
2021/05/04 05:34:09;;;;;;;9.07;2.20;;;12.60;67.60;;;;;;5085713;28;20537;-74
2021/05/04 05:36:35;;;;;;;8.80;2.17;;;12.60;68.00;;;;;;5095734;28;20440;-74
2021/05/04 05:39:01;;;;;;;10.43;2.25;;;12.60;68.00;;;;;;5092872;28;20095;-76
2021/05/04 05:41:26;;;;;;;7.50;2.03;;;12.50;67.70;;;;;;5095074;28;20024;-76
2021/05/04 05:43:52;;;;;;;7.70;1.85;;;12.60;67.90;;;;;;5094384;28;20077;-73
2021/05/04 05:46:18;;;;;;;10.05;2.00;;;12.60;67.90;;;;;;5093592;28;20016;-75
2021/05/04 05:48:45;;;;;;;8.68;2.00;;;12.60;68.80;;;;;;5077573;28;20510;-75
2021/05/04 05:51:11;;;;;;;10.43;2.10;;;12.50;68.80;;;;;;5087197;28;20031;-76
2021/05/04 05:53:38;;;;;;;7.57;2.08;;;12.50;68.90;;;;;;5086600;28;20020;-74
2021/05/04 05:56:05;;;;;;;8.80;2.38;;;12.50;69.00;;;;;;5092385;28;20035;-76
2021/05/04 05:58:31;;;;;;;13.85;2.38;;;12.50;68.80;;;;;;5100914;28;20012;-74
2021/05/04 06:00:56;;;;;;;13.20;1.98;;;12.50;68.90;;;;;;5092542;28;20032;-76
2021/05/04 06:03:23;;;;;;;10.43;2.40;;;12.50;69.00;;;;;;5097904;28;20020;-76
2021/05/04 06:05:51;;;;;;;7.72;2.53;;;12.50;68.70;;;;;;5087442;28;20033;-76
2021/05/04 06:08:17;;;;;;;15.82;3.08;;;12.40;69.10;;;;;;5077385;28;20025;-75
2021/05/04 06:10:43;;;;;;;10.98;2.33;;;12.50;69.30;;;;;;5078679;28;20027;-79
2021/05/04 06:13:09;;;;;;;10.32;3.05;;;12.40;69.40;;;;;;5078438;28;20471;-78
2021/05/04 06:15:36;;;;;;;10.27;3.00;;;12.40;70.10;;;;;;5078181;28;20028;-72
2021/05/04 06:18:03;;;;;;;13.45;3.30;;;12.40;69.30;;;;;;5091155;28;20020;-73
2021/05/04 06:20:29;;;;;;;8.55;3.13;;;12.40;69.80;;;;;;5085685;28;20074;-72
2021/05/04 06:22:54;;;;;;;11.45;2.83;;;12.40;70.80;;;;;;5094693;28;20016;-72
2021/05/04 06:25:21;;;;;;;10.35;3.45;;;12.30;70.50;;;;;;5097598;28;20490;-72
2021/05/04 06:27:46;;;;;;;10.90;3.20;;;12.30;70.50;;;;;;5092245;28;20024;-73
2021/05/04 06:30:14;;;;;;;11.30;2.90;;;12.30;70.40;;;;;;5078056;28;20078;-73
2021/05/04 06:32:43;;;;;;;9.88;2.55;;;12.20;71.10;;;;;;5096221;28;20031;-72
2021/05/04 06:35:13;;;;;;;10.73;2.45;;;12.20;71.10;;;;;;5084252;28;20135;-72
2021/05/04 06:37:39;;;;;;;9.48;3.28;;;12.20;71.10;;;;;;5090752;28;20024;-72
2021/05/04 06:40:05;;;;;;;17.08;3.75;;;12.20;71.30;;;;;;5077986;28;20024;-72
2021/05/04 06:42:31;;;;;;;11.93;3.40;;;12.20;71.10;;;;;;5096745;28;20016;-72
2021/05/04 06:44:57;;;;;;;12.05;2.75;;;12.10;71.10;;;;;;5094300;28;20513;-72
2021/05/04 06:47:23;;;;;;;11.38;3.42;;;12.20;71.70;;;;;;5096391;28;20099;-72
2021/05/04 06:49:51;;;;;;;15.13;4.18;;;12.10;70.60;;;;;;5105293;28;20024;-72
2021/05/04 06:52:17;;;;;;;14.30;3.22;;;12.10;71.30;;;;;;5089358;28;20080;-72
2021/05/04 06:54:44;;;;;;;12.75;3.28;;;12.10;71.30;;;;;;5077460;28;20509;-73
2021/05/04 06:57:10;;;;;;;19.45;7.57;;;12.10;72.20;;;;;;5078941;28;20012;-72
2021/05/04 06:59:36;;;;;;;17.15;5.25;;;12.10;71.50;;;;;;5094963;28;20031;-72
2021/05/04 07:02:02;;;;;;;15.18;3.45;;;12.10;71.30;;;;;;5083450;28;20027;-72
2021/05/04 07:04:28;;;;;;;12.13;3.22;;;12.10;71.90;;;;;;5083495;28;20040;-72
2021/05/04 07:06:54;;;;;;;9.20;3.35;;;12.10;70.90;;;;;;5077098;28;20125;-72
2021/05/04 07:09:20;;;;;;;14.65;5.28;;;12.10;71.00;;;;;;5077138;28;20066;-72
2021/05/04 07:11:49;;;;;;;14.23;4.05;;;12.20;72.00;;;;;;5076841;28;20090;-72
2021/05/04 07:14:15;;;;;;;15.27;3.72;;;12.20;71.00;;;;;;5077032;28;20032;-72
2021/05/04 07:16:41;;;;;;;13.93;3.85;;;12.20;71.50;;;;;;5078716;28;20016;-72
2021/05/04 07:19:07;;;;;;;14.05;3.35;;;12.30;70.80;;;;;;5096657;28;20089;-72
2021/05/04 07:21:34;;;;;;;12.98;3.58;;;12.20;71.20;;;;;;5076882;28;20028;-72
2021/05/04 07:24:00;;;;;;;18.17;3.65;;;12.30;70.50;;;;;;5076442;28;20082;-72
2021/05/04 07:26:26;;;;;;;12.35;3.53;;;12.30;70.20;;;;;;5076663;28;20032;-72
2021/05/04 07:28:52;;;;;;;14.85;3.75;;;12.30;69.90;;;;;;5076931;28;20039;-72
2021/05/04 07:31:18;;;;;;;17.33;4.25;;;12.30;70.00;;;;;;5077457;28;20020;-72
2021/05/04 07:33:44;;;;;;;11.75;3.20;;;12.40;69.80;;;;;;5076802;28;20426;-72
2021/05/04 07:36:10;;;;;;;12.55;4.13;;;12.40;70.20;;;;;;5091262;28;20015;-72
2021/05/04 07:38:35;;;;;;;14.48;3.42;;;12.40;70.30;;;;;;5116038;28;20088;-72
2021/05/04 07:41:01;;;;;;;15.15;3.47;;;12.40;70.00;;;;;;5097488;28;20016;-72
2021/05/04 07:43:27;;;;;;;9.68;3.22;;;12.50;70.50;;;;;;5095374;28;20107;-72
2021/05/04 07:45:53;;;;;;;16.35;3.88;;;12.50;70.60;;;;;;5077090;28;20507;-72
2021/05/04 07:48:19;;;;;;;12.43;3.45;;;12.50;70.40;;;;;;5079713;28;20028;-72
2021/05/04 07:50:45;;;;;;;15.48;4.53;;;12.50;69.90;;;;;;5108286;28;20843;-72
2021/05/04 07:53:13;;;;;;;14.10;3.80;;;12.50;70.30;;;;;;5081055;28;20070;-72
2021/05/04 07:55:38;;;;;;;10.95;3.67;;;12.50;70.40;;;;;;5076553;28;20126;-72
2021/05/04 07:58:04;;;;;;;15.50;4.95;;;12.50;70.40;;;;;;5106174;28;20043;-72
2021/05/04 08:00:30;;;;;;;14.45;4.88;;;12.60;70.70;;;;;;5087629;28;20032;-72
2021/05/04 08:02:55;;;;;;;17.38;4.15;;;12.60;71.90;;;;;;5089896;28;20048;-72
2021/05/04 08:05:21;;;;;;;17.63;4.32;;;12.60;70.60;;;;;;5076733;28;20090;-72
2021/05/04 08:07:47;;;;;;;19.85;4.95;;;12.60;70.50;;;;;;5076398;28;20028;-72
2021/05/04 08:10:13;;;;;;;18.45;4.45;;;12.60;71.00;;;;;;5076828;28;20116;-72
2021/05/04 08:12:39;;;;;;;11.27;4.63;;;12.60;70.70;;;;;;5078587;28;20056;-72
2021/05/04 08:15:07;;;;;;;14.75;3.67;;;12.60;70.80;;;;;;5109533;28;20024;-72
2021/05/04 08:17:35;;;;;;;18.25;4.43;;;12.60;71.30;;;;;;5092982;28;20024;-72
2021/05/04 08:20:04;;;;;;;14.95;5.68;;;12.60;70.90;;;;;;5092496;28;20025;-72
2021/05/04 08:22:29;;;;;;;21.80;6.38;;;12.60;70.20;;;;;;5080200;28;20028;-73
2021/05/04 08:24:56;;;;;;;13.00;4.32;;;12.60;70.80;;;;;;5080473;28;20031;-72
2021/05/04 08:27:22;;;;;;;16.40;4.32;;;12.60;70.40;;;;;;5079690;28;20096;-72
2021/05/04 08:29:48;;;;;;;16.80;4.60;;;12.70;70.70;;;;;;5080244;28;20443;-72
2021/05/04 08:32:14;;;;;;;11.35;3.83;;;12.70;70.80;;;;;;5079724;28;20113;-72
2021/05/04 08:34:40;;;;;;;16.88;4.00;;;12.70;70.20;;;;;;5080036;28;20041;-72
2021/05/04 08:37:06;;;;;;;17.20;4.25;;;12.70;70.60;;;;;;5096135;28;20024;-72
2021/05/04 08:39:32;;;;;;;16.35;4.43;;;12.70;70.00;;;;;;5090903;28;20476;-72
2021/05/04 08:41:58;;;;;;;21.25;5.95;;;12.70;69.90;;;;;;5095818;28;20435;-72
2021/05/04 08:44:25;;;;;;;14.10;4.50;;;12.70;70.00;;;;;;5091158;28;20064;-72
2021/05/04 08:46:52;;;;;;;17.63;4.88;;;12.70;69.70;;;;;;5079463;28;20503;-72
2021/05/04 08:49:19;;;;;;;20.35;4.57;;;12.70;70.20;;;;;;5079899;28;20024;-72
2021/05/04 08:51:47;;;;;;;20.20;4.18;;;12.80;69.90;;;;;;5079725;28;20032;-72
2021/05/04 08:54:16;;;;;;;15.07;4.55;;;12.80;69.90;;;;;;5080041;28;20029;-72
2021/05/04 08:56:41;;;;;;;17.20;5.20;;;12.90;69.50;;;;;;5080140;28;20104;-72
2021/05/04 08:59:08;;;;;;;13.68;4.15;;;12.90;70.00;;;;;;5079779;28;20056;-72
2021/05/04 09:01:34;;;;;;;18.52;4.22;;;12.90;69.30;;;;;;5082179;28;20027;-72
2021/05/04 09:04:09;;;;;;;19.35;4.10;;;12.90;69.50;;;;;;5090439;28;20012;-72
2021/05/04 09:06:46;;;;;;;14.70;4.60;;;13.00;69.00;;;;;;5089574;28;20391;-72
2021/05/04 09:09:21;;;;;;;16.52;4.47;;;13.00;69.20;;;;;;5087446;28;20027;-72
2021/05/04 09:14:50;;;;;;;13.55;3.80;;;13.10;69.10;;;;;;5082858;28;20025;-72
2021/05/04 09:22:36;;;;;;;16.73;3.97;;;13.20;68.80;;;;;;5093926;28;20031;-72
2021/05/04 09:25:23;;;;;;;17.08;3.70;;;13.30;68.90;;;;;;5089022;28;20023;-72
2021/05/04 09:28:02;;;;;;;13.23;3.83;;;13.30;68.70;;;;;;5078713;28;20453;-72
2021/05/04 09:30:28;;;;;;;16.52;3.88;;;13.30;69.00;;;;;;5079173;28;20025;-72
2021/05/04 09:32:54;;;;;;;14.75;3.20;;;13.40;68.60;;;;;;5078778;28;20048;-72
2021/05/04 09:35:30;;;;;;;17.10;5.55;;;13.30;68.20;;;;;;5080439;28;20040;-72
2021/05/04 09:38:09;;;;;;;15.32;3.60;;;13.40;68.10;;;;;;5089199;28;20028;-72
2021/05/04 09:40:40;;;;;;;15.55;3.35;;;13.40;68.10;;;;;;5096933;28;20028;-72
2021/05/04 09:43:08;;;;;;;12.88;2.78;;;13.40;67.50;;;;;;5099246;28;20028;-72
2021/05/04 09:45:37;;;;;;;9.30;2.20;;;13.30;67.90;;;;;;5079299;28;20567;-72
2021/05/04 09:48:18;;;;;;;8.38;2.67;;;13.30;67.50;;;;;;5081749;28;20119;-72
2021/05/04 09:50:45;;;;;;;8.25;1.90;;;13.20;68.20;;;;;;5089520;28;20040;-72
2021/05/04 09:53:11;;;;;;;9.30;1.60;;;13.10;68.30;;;;;;5078590;28;20035;-72
2021/05/04 09:55:55;;;;;;;8.40;2.05;;;13.00;68.00;;;;;;5078905;28;20108;-72
2021/05/04 09:58:32;;;;;;;6.28;1.90;;;12.90;68.40;;;;;;5078385;28;20024;-72
2021/05/04 10:00:58;;;;;;;7.07;1.77;;;12.90;69.10;;;;;;5078124;28;20052;-72
2021/05/04 10:03:24;;;;;;;9.77;2.50;;;12.80;69.60;;;;;;5091899;28;20024;-72
2021/05/04 10:05:50;;;;;;;8.80;2.05;;;12.90;69.90;;;;;;5078823;28;20021;-72
2021/05/04 10:08:17;;;;;;;7.88;2.35;;;12.90;69.70;;;;;;5086314;28;20034;-72
2021/05/04 10:10:44;;;;;;;6.82;1.92;;;13.00;70.70;;;;;;5087348;28;20024;-72
2021/05/04 10:13:11;;;;;;;6.45;2.10;;;13.10;71.10;;;;;;5078323;28;20043;-72
2021/05/04 10:15:37;;;;;;;5.40;1.85;;;13.20;70.50;;;;;;5078663;28;20071;-72
2021/05/04 10:18:04;;;;;;;6.95;1.95;;;13.30;69.80;;;;;;5091248;28;20444;-72
2021/05/04 10:20:30;;;;;;;8.13;2.60;;;13.30;69.40;;;;;;5086356;28;20044;-72
2021/05/04 10:22:57;;;;;;;13.63;3.05;;;13.40;69.20;;;;;;5077655;28;20029;-72
2021/05/04 10:25:22;;;;;;;8.20;2.55;;;13.50;69.80;;;;;;5078146;28;20029;-72
2021/05/04 10:27:53;;;;;;;11.75;2.67;;;13.60;69.80;;;;;;5077989;28;20038;-72
2021/05/04 10:30:22;;;;;;;8.18;1.98;;;13.70;69.60;;;;;;5078260;28;20038;-72
2021/05/04 10:32:58;;;;;;;10.90;2.30;;;13.70;69.70;;;;;;5091961;28;20032;-72
2021/05/04 10:35:33;;;;;;;9.82;2.20;;;13.80;69.20;;;;;;5092522;28;20049;-72
2021/05/04 10:38:08;;;;;;;9.75;2.58;;;13.90;69.30;;;;;;5077830;28;20025;-72
2021/05/04 10:40:37;;;;;;;8.55;2.30;;;14.00;69.40;;;;;;5093266;28;20024;-72
2021/05/04 10:43:22;;;;;;;9.90;2.50;;;14.10;69.70;;;;;;5097007;28;20030;-72
2021/05/04 10:45:59;;;;;;;11.98;3.50;;;14.10;69.60;;;;;;5084792;28;20054;-72
2021/05/04 10:48:44;;;;;;;10.55;2.30;;;14.10;69.20;;;;;;5097806;28;20039;-72
2021/05/04 10:51:13;;;;;;;13.00;3.15;;;14.10;68.90;;;;;;5098320;28;20028;-72
2021/05/04 10:53:51;;;;;;;12.05;3.15;;;14.10;69.20;;;;;;5097724;28;20482;-72
2021/05/04 10:56:30;;;;;;;10.32;3.00;;;14.10;69.30;;;;;;5097958;28;20072;-73
2021/05/04 10:58:56;;;;;;;14.60;3.00;;;14.10;68.80;;;;;;5098078;28;20027;-72
2021/05/04 11:01:22;;;;;;;9.57;2.83;;;14.10;68.90;;;;;;5084679;28;20024;-74
2021/05/04 11:03:56;;;;;;;14.85;2.88;;;14.20;69.20;;;;;;5108997;28;20016;-72
2021/05/04 11:06:24;;;;;;;11.32;2.55;;;14.20;69.90;;;;;;5082404;28;20024;-72
2021/05/04 11:08:50;;;;;;;8.63;2.65;;;14.10;69.30;;;;;;5077579;28;20021;-72
2021/05/04 11:11:41;;;;;;;11.00;2.72;;;14.20;68.90;;;;;;5077407;28;20093;-72
2021/05/04 11:14:16;;;;;;;9.10;2.85;;;14.10;68.30;;;;;;5077543;28;20028;-72
2021/05/04 11:16:53;;;;;;;10.27;2.00;;;14.10;68.40;;;;;;5084140;28;20031;-72
2021/05/04 11:21:59;;;;;;;10.50;2.08;;;13.90;68.00;;;;;;5077262;28;20591;-72
2021/05/04 11:24:33;;;;;;;10.40;2.20;;;13.90;68.30;;;;;;5077569;28;20031;-73
2021/05/04 11:27:01;;;;;;;9.07;2.05;;;13.80;68.20;;;;;;5077430;28;20025;-71
2021/05/04 11:29:30;;;;;;;9.63;2.65;;;13.80;68.50;;;;;;5077514;28;20047;-72
2021/05/04 11:32:24;;;;;;;11.15;2.30;;;13.70;68.20;;;;;;5076923;28;20028;-72
2021/05/04 11:35:06;;;;;;;8.75;2.10;;;13.70;68.70;;;;;;5081938;28;20518;-72
2021/05/04 11:37:41;;;;;;;8.13;2.20;;;13.70;69.20;;;;;;5095212;28;20020;-72
2021/05/04 11:40:20;;;;;;;7.95;2.10;;;13.80;69.70;;;;;;5083301;28;20379;-73
2021/05/04 11:42:53;;;;;;;10.73;2.60;;;13.80;70.00;;;;;;5086842;28;20068;-72
2021/05/04 11:45:25;;;;;;;17.10;7.10;;;13.80;69.40;;;;;;5080293;28;20016;-72
2021/05/04 13:28:27;;;;;;;6.05;1.63;;;14.70;64.60;;;;;;4984119;28;20157;-72
2021/05/04 13:30:55;;;;;;;7.53;1.38;;;14.60;64.60;;;;;;4952678;28;20035;-72
2021/05/04 13:33:21;;;;;;;6.68;1.50;;;14.60;65.30;;;;;;4979832;28;20054;-72
2021/05/04 13:36:01;;;;;;;7.55;1.83;;;14.50;65.10;;;;;;4980237;28;20401;-72
2021/05/04 13:38:46;;;;;;;6.10;1.50;;;14.50;65.00;;;;;;4980271;28;20030;-72
2021/05/04 13:49:24;;;;;;;5.82;1.83;;;14.50;64.40;;;;;;4979551;28;20111;-72
2021/05/04 13:51:50;;;;;;;4.72;1.40;;;14.50;64.20;;;;;;4979803;28;20062;-72
2021/05/04 13:54:17;;;;;;;6.40;1.60;;;14.50;64.40;;;;;;4979662;28;20027;-72
2021/05/04 13:56:43;;;;;;;4.38;1.20;;;14.60;64.40;;;;;;4979993;28;20026;-72
2021/05/04 13:59:09;;;;;;;4.63;1.08;;;14.70;63.80;;;;;;4979591;28;20388;-72
2021/05/04 14:01:40;;;;;;;5.07;1.67;;;14.70;63.60;;;;;;4979952;28;20038;-72
2021/05/04 14:07:44;;;;;;;5.93;1.40;;;14.80;62.80;;;;;;4979956;28;20090;-72
2021/05/04 14:28:11;;;;;;;5.38;1.30;;;15.30;62.70;;;;;;4979489;28;20038;-72
2021/05/04 14:30:37;;;;;;;4.80;1.48;;;15.30;62.30;;;;;;4979402;28;20035;-71
2021/05/04 14:33:03;;;;;;;8.27;1.88;;;15.30;62.80;;;;;;4978922;28;20610;-72
2021/05/04 14:35:34;;;;;;;3.05;1.02;;;15.40;63.20;;;;;;4978862;28;20057;-71
2021/05/04 14:38:09;;;;;;;4.43;0.90;;;15.40;63.00;;;;;;4987679;28;20571;-72
2021/05/04 14:41:39;;;;;;;5.05;1.13;;;15.50;62.80;;;;;;4979022;28;20106;-72
2021/05/04 14:46:23;;;;;;;6.60;1.98;;;15.60;62.80;;;;;;4978657;28;20033;-71
2021/05/04 14:59:07;;;;;;;2.73;1.00;;;15.60;61.50;;;;;;4978645;28;20054;-72
2021/05/04 15:01:48;;;;;;;3.88;1.08;;;15.60;61.50;;;;;;4979045;28;20258;-72
2021/05/04 15:04:18;;;;;;;5.45;1.10;;;15.60;61.40;;;;;;4978772;28;20023;-72
2021/05/04 15:06:45;;;;;;;4.80;1.20;;;15.70;61.80;;;;;;4978639;28;20026;-73
2021/05/04 15:09:12;;;;;;;3.35;1.30;;;15.60;61.00;;;;;;4979022;28;20030;-72
2021/05/04 15:11:46;;;;;;;3.47;1.00;;;15.70;60.40;;;;;;4978798;28;20176;-72
2021/05/04 15:16:51;;;;;;;2.75;1.10;;;15.60;60.60;;;;;;4978184;28;20062;-72
2021/05/04 15:22:03;;;;;;;9.43;4.15;;;15.60;60.80;;;;;;4978048;28;20114;-73
2021/05/04 15:24:29;;;;;;;4.35;1.60;;;15.60;61.20;;;;;;4976937;28;20027;-72